Tiempo atmosférico en la estación meteorológica de Quintana del Castillo, Villameca, León (995 m.)



Fecha
DESCASC
Temp. máxima en grados centígrados (hora)
DESCASC
Temp. mínima en grados centígrados (hora)
DESCASC
Temp. media en grados centígrados
DESCASC
Racha de viento máxima en m/sg (hora)
DESCASC
Velocidad máxima media en intervalos de 10 minutos(hora)
DESCASC
Precipitaciones diarias en mm
DESCASC
Precipitaciones de 00:00 a 06:00 en mm
DESCASC
Precipitaciones de 06:00 a 12:00 en mm
DESCASC
Precipitaciones de 12:00 a 18:00 en mm
DESCASC
Precipitaciones de 18:00 a 24:00 en mm
DESCASC
17-09-2020 21.6 (17:30) 15 (21:10) 18.3 15 (20:30) 10.28 (20:30) 7 0.2 0 0 6.8
16-09-2020 25.5 (16:00) 10.8 (08:10) 18.2 7.22 (13:30) 3.61 (17:50) 0 0 0 0 0
15-09-2020 24.8 (17:50) 13.3 (04:30) 19 7.5 (19:20) 3.61 (17:40) 0 0 0 0 0
14-09-2020 25.4 (16:10) 13.8 (00:00) 19.6 16.67 (17:40) 6.39 (17:40) 2.6 0 0 1 1.6
13-09-2020 30.5 (17:10) 11.9 (00:00) 21.2 7.22 (17:30) 3.61 (17:40) 0 0 0 0 0
12-09-2020 28.4 (17:40) 11.7 (00:00) 20 5.56 (16:00) 4.17 (22:40) 0 0 0 0 0
11-09-2020 28.6 (17:30) 10.9 (00:00) 19.8 7.5 (16:20) 3.61 (16:20) 0 0 0 0 0
10-09-2020 27.8 (18:30) 10.7 (00:00) 19.2 5.56 (16:10) 3.89 (06:30) 0 0 0 0 0
09-09-2020 27 (17:50) 8.5 (00:00) 17.8 5.56 (12:40) 4.17 (22:20) 0 0 0 0 0
08-09-2020 23.8 (18:40) 6.3 (00:00) 15 8.89 (13:30) 4.44 (13:20) 0 0 0 0 0
07-09-2020 22.6 (18:00) 6.7 (08:00) 14.7 8.33 (16:00) 3.89 (16:00) 0 0 0 0 0
06-09-2020 27.5 (18:40) 12.6 (00:00) 20.1 6.94 (18:10) 3.61 (17:30) 0 0 0 0 0
05-09-2020 29.8 (16:40) 13.6 (00:00) 21.7 8.06 (21:20) 5 (21:30) 0 0 0 0 0
04-09-2020 30.6 (17:40) 12.2 (00:00) 21.4 7.5 (18:30) 4.17 (18:30) 0 0 0 0 0
03-09-2020 29 (17:40) 10.3 (00:00) 19.7 6.67 (17:50) 4.17 (23:10) 0 0 0 0 0
02-09-2020 25.2 (17:50) 8.6 (00:00) 16.9 5.56 (01:30) 3.61 (22:50) 0 0 0 0 0
01-09-2020 24.9 (18:30) 11.2 (00:00) 18 10.28 (19:50) 7.22 (19:50) 0 0 0 0 0
31-08-2020 20.1 (17:30) 4.9 (00:00) 12.5 7.78 (18:10) 5.28 (18:10) 0 0 0 0 0
30-08-2020 17.2 (17:00) 5.3 (00:00) 11.3 6.67 (12:40) 4.72 (19:30) 0 0 0 0 0
29-08-2020 15 (15:30) 8.1 (00:00) 11.6 14.44 (14:40) 10 (16:00) 0 0 0 0 0
28-08-2020 19.2 (00:00) 10.8 (00:00) 15 15.56 (15:50) 9.44 (15:50) 0 0 0 0 0
27-08-2020 27.3 (16:00) 16 (00:00) 21.6 15.28 (21:50) 8.61 (18:40) 0 0 0 0 0
26-08-2020 29.1 (17:20) 12.6 (00:00) 20.9 10.28 (17:00) 6.67 (17:40) 0 0 0 0 0
25-08-2020 28.2 (17:20) 14.1 (00:00) 21.2 11.11 (15:30) 7.22 (15:30) 0 0 0 0 0
24-08-2020 26.5 (18:00) 10.8 (00:00) 18.7 5.56 (18:10) 3.61 (01:20) 0 0 0 0 0
23-08-2020 26.2 (17:20) 9.8 (00:00) 18 7.5 (16:40) 5.28 (18:10) 0 0 0 0 0
22-08-2020 24.2 (18:20) 10.9 (00:00) 17.6 8.89 (15:20) 5.56 (05:30) 0 0 0 0 0
21-08-2020 22.7 (18:10) 10.7 (00:00) 16.7 11.39 (17:10) 6.67 (13:10) 0 0 0 0 0
20-08-2020 22.1 (15:20) 14.9 (00:00) 18.5 11.11 (15:40) 5.83 (15:40) 5.8 0.6 3.8 1.4 0

Gráficas

Temp. máximas Temp. mínimas Temp. medias Precipitaciones Rachas de viento máximas Velocidades máximas media en intervalos de 10 minutos

Datos horarios

Fecha y hora oficial Temperatura (ºC) Velocidad del viento (km/h) Dirección del viento Racha (km/h) Dirección de racha Precipitación (mm) Presión (hPa) Tendencia (hPa) Humedad (%)
2020-09-18 23:00:00 -- -- -- -- -- -- -- -- --
2020-09-18 22:00:00 -- -- -- -- -- -- -- -- --
2020-09-18 21:00:00 13 13 Noroeste 30 Sudoeste 1 -- -- 89
2020-09-18 20:00:00 14.3 8 Oeste 38 Sur 1.2 -- -- 86
2020-09-18 19:00:00 18.7 10 Sur 25 Sur 0 -- -- 58
2020-09-18 18:00:00 20.1 6 Sudoeste 26 Sudoeste 0 -- -- 50
2020-09-18 17:00:00 20.9 10 Sur 28 Sudoeste 0 -- -- 49
2020-09-18 16:00:00 20 11 Sudoeste 29 Sudoeste 0 -- -- 52
2020-09-18 15:00:00 19.8 10 Sudoeste 27 Sur 0 -- -- 54
2020-09-18 14:00:00 19.4 14 Sudoeste 33 Sudoeste 0 -- -- 55
2020-09-18 13:00:00 17.6 13 Sur 30 Sudoeste 0 -- -- 65
2020-09-18 12:00:00 16.1 12 Sudoeste 27 Sur 0 -- -- 79
2020-09-18 11:00:00 14.6 9 Sur 16 Sur 0 -- -- 88
2020-09-18 10:00:00 14.2 5 Sudoeste 13 Sudoeste 0 -- -- 96
2020-09-18 09:00:00 13.6 5 Sur 15 Sur 0 -- -- 96
2020-09-18 08:00:00 13.6 5 Sudeste 10 Sudeste 0 -- -- 93
2020-09-18 07:00:00 13.6 5 Sudeste 12 Sudeste 0 -- -- 93
2020-09-18 06:00:00 13.5 9 Este 14 Sudeste 0 -- -- 96
2020-09-18 05:00:00 13.7 8 Sudeste 17 Sudeste 0 -- -- 96
2020-09-18 04:00:00 14.3 9 Este 13 Este 0 -- -- 94
2020-09-18 03:00:00 14.6 5 Este 13 Sudeste 0 -- -- 92
2020-09-18 02:00:00 15.3 7 Sudeste 14 Este 0 -- -- 90
2020-09-18 01:00:00 15.3 6 Nordeste 12 Norte 0 -- -- 91
2020-09-18 00:00:00 15.3 5 Nordeste 14 Norte 0 -- -- 92
2020-09-17 23:00:00 15.5 5 Norte 25 Este 0 -- -- 89
2020-09-17 22:00:00 15.4 9 Nordeste 27 Nordeste 0.2 -- -- 90
2020-09-17 21:00:00 15.7 8 Norte 54 Oeste 6.6 -- -- 86
2020-09-17 20:00:00 20 12 Nordeste 24 Sudeste 0 -- -- 67
2020-09-17 19:00:00 21 15 Este 27 Este 0 -- -- 60
2020-09-17 18:00:00 21.5 10 Sudeste 27 Este 0 -- -- 59
2020-09-17 17:00:00 21 21 Sudeste 30 Sudeste 0 -- -- 62
2020-09-17 16:00:00 20.1 10 Sur 21 Sur 0 -- -- 65
2020-09-17 15:00:00 18.4 8 Sudeste 17 Sudeste 0 -- -- 74
2020-09-17 14:00:00 17.9 7 Sur 18 Sur 0 -- -- 74
2020-09-17 13:00:00 17.9 9 Sur 22 Sudoeste 0 -- -- 74
2020-09-17 12:00:00 18.2 10 Sur 23 Sur 0 -- -- 73
2020-09-17 11:00:00 19.1 8 Sur 15 Sur 0 -- -- 70
2020-09-17 10:00:00 16.6 4 Sudoeste 6 Sudoeste 0 -- -- 80
2020-09-17 09:00:00 15.8 3 Nordeste 9 Nordeste 0 -- -- 82
2020-09-17 08:00:00 15.8 5 Nordeste 15 Nordeste 0 -- -- 80
2020-09-17 07:00:00 15.9 15 Nordeste 21 Nordeste 0 -- -- 79
2020-09-17 06:00:00 16 12 Nordeste 20 Sudeste 0.2 -- -- 83
2020-09-17 05:00:00 18.5 12 Sudeste 24 Sudeste 0 -- -- 68
2020-09-17 04:00:00 19.8 15 Este 28 Sudeste 0 -- -- 56
2020-09-17 03:00:00 20.2 14 Este 30 Este 0 -- -- 47
2020-09-17 02:00:00 20.2 17 Nordeste 39 Este 0 -- -- 49
2020-09-17 01:00:00 18.8 11 Nordeste 16 Este 0 -- -- 59
2020-09-17 00:00:00 18.4 12 Norte 18 Norte 0 -- -- 56
2020-09-16 23:00:00 18.3 9 Norte 14 Norte 0 -- -- 61
2020-09-16 22:00:00 18.8 10 Nordeste 14 Nordeste 0 -- -- 64
2020-09-16 21:00:00 19.3 8 Norte 10 Norte 0 -- -- 62
2020-09-16 20:00:00 22.2 4 Nordeste 5 Sur 0 -- -- 55
2020-09-16 19:00:00 23.5 3 Sudoeste 15 Sudoeste 0 -- -- 44
2020-09-16 18:00:00 24 8 Sur 23 Sur 0 -- -- 40
2020-09-16 17:00:00 24.8 11 Sudeste 26 Sudeste 0 -- -- 37
2020-09-16 16:00:00 25.5 10 Sudoeste 25 Sudoeste 0 -- -- 36
2020-09-16 15:00:00 24.3 9 Sudeste 22 Sur 0 -- -- 36
2020-09-16 14:00:00 23.6 11 Sudoeste 26 Sudeste 0 -- -- 40
2020-09-16 13:00:00 23.1 9 Sur 22 Sur 0 -- -- 45
2020-09-16 12:00:00 21.4 6 Sudeste 15 Sur 0 -- -- 49
2020-09-16 11:00:00 19.3 4 Sur 7 Sur 0 -- -- 60
2020-09-16 10:00:00 14.9 3 Nordeste 10 Nordeste 0 -- -- 77
2020-09-16 09:00:00 11.7 8 Norte 13 Norte 0 -- -- 85
2020-09-16 08:00:00 10.9 7 Nordeste 12 Norte 0 -- -- 87
2020-09-16 07:00:00 11.3 7 Norte 14 Nordeste 0 -- -- 85
2020-09-16 06:00:00 11.6 12 Norte 15 Norte 0 -- -- 84
2020-09-16 05:00:00 11.7 11 Norte 16 Norte 0 -- -- 82
2020-09-16 04:00:00 11.9 10 Nordeste 15 Norte 0 -- -- 83
2020-09-16 03:00:00 12.1 8 Nordeste 13 Norte 0 -- -- 84
2020-09-16 02:00:00 12.9 12 Norte 15 Norte 0 -- -- 80
2020-09-16 01:00:00 12.9 7 Nordeste 10 Norte 0 -- -- 82
2020-09-16 00:00:00 13.9 6 Norte 14 Norte 0 -- -- 75
2020-09-15 23:00:00 14.6 8 Nordeste 11 Norte 0 -- -- 72
2020-09-15 22:00:00 15.6 4 Nordeste 9 Nordeste 0 -- -- 71
2020-09-15 21:00:00 19 0 Calma 17 Sudoeste 0 -- -- 52
2020-09-15 20:00:00 21.8 9 Sudoeste 27 Oeste 0 -- -- 43
2020-09-15 19:00:00 24.3 11 Sudoeste 23 Oeste 0 -- -- 40
2020-09-15 18:00:00 24.8 9 Sudoeste 24 Oeste 0 -- -- 39
2020-09-15 17:00:00 23.6 12 Sudoeste 23 Sur 0 -- -- 46
2020-09-15 16:00:00 23.4 10 Sudoeste 26 Sudoeste 0 -- -- 49
2020-09-15 15:00:00 21.5 7 Oeste 20 Sudoeste 0 -- -- 59
2020-09-15 14:00:00 21.6 8 Sudoeste 23 Sudoeste 0 -- -- 55
2020-09-15 13:00:00 20 5 Sur 16 Sudoeste 0 -- -- 68
2020-09-15 12:00:00 19 6 Sur 14 Sudeste 0 -- -- 73
2020-09-15 11:00:00 17.3 6 Este 17 Sudeste 0 -- -- 81
2020-09-15 10:00:00 15.9 8 Sudeste 14 Sudeste 0 -- -- 81
2020-09-15 09:00:00 14.1 4 Nordeste 9 Nordeste 0 -- -- 92
2020-09-15 08:00:00 13.7 4 Nordeste 9 Nordeste 0 -- -- 94
2020-09-15 07:00:00 13.9 4 Nordeste 8 Nordeste 0 -- -- 94
2020-09-15 06:00:00 14 6 Norte 12 Norte 0 -- -- 93
2020-09-15 05:00:00 13.7 6 Norte 14 Norte 0 -- -- 93
2020-09-15 04:00:00 13.5 6 Nordeste 12 Norte 0 -- -- 93
2020-09-15 03:00:00 13.6 5 Nordeste 13 Norte 0 -- -- 93
2020-09-15 02:00:00 13.8 8 Norte 13 Norte 0 -- -- 92
2020-09-15 01:00:00 14.2 6 Norte 13 Norte 0 -- -- 92
2020-09-15 00:00:00 14.5 5 Norte 17 Norte 0 -- -- 91
2020-09-14 23:00:00 14.5 8 Norte 13 Nordeste 0 -- -- 92
2020-09-14 22:00:00 15.2 8 Norte 17 Norte 0 -- -- 89
2020-09-14 21:00:00 15.9 9 Norte 15 Norte 0 -- -- 89
2020-09-14 20:00:00 16.7 12 Nordeste 21 Norte 0.6 -- -- 87
2020-09-14 19:00:00 16.9 17 Nordeste 26 Noroeste 1 -- -- 84
2020-09-14 18:00:00 16.8 15 Norte 60 Oeste 1 -- -- 79
2020-09-14 17:00:00 24.7 11 Sur 30 Sur 0 -- -- 48
2020-09-14 16:00:00 25 14 Sur 28 Sur 0 -- -- 46
2020-09-14 15:00:00 23.9 13 Sur 26 Sudoeste 0 -- -- 48
2020-09-14 14:00:00 21.4 9 Sur 21 Sudeste 0 -- -- 54
2020-09-14 13:00:00 19.3 12 Este 19 Este 0 -- -- 64
2020-09-14 12:00:00 18.1 9 Este 16 Nordeste 0 -- -- 75
2020-09-14 11:00:00 20 8 Sur 25 Este 0 -- -- 52
2020-09-14 10:00:00 19.2 17 Este 26 Este 0 -- -- 56
2020-09-14 09:00:00 16.8 6 Nordeste 13 Nordeste 0 -- -- 62
2020-09-14 08:00:00 15 7 Nordeste 13 Nordeste 0 -- -- 67
2020-09-14 07:00:00 14.4 9 Norte 14 Norte 0 -- -- 69
2020-09-14 06:00:00 14 9 Nordeste 13 Nordeste 0 -- -- 76
2020-09-14 05:00:00 14.5 4 Nordeste 10 Norte 0 -- -- 74
2020-09-14 04:00:00 15.8 9 Nordeste 16 Norte 0 -- -- 64
2020-09-14 03:00:00 16.4 11 Norte 14 Norte 0 -- -- 65
2020-09-14 02:00:00 17 9 Nordeste 15 Norte 0 -- -- 61
2020-09-14 01:00:00 17.5 12 Norte 16 Norte 0 -- -- 58
2020-09-14 00:00:00 17.8 12 Norte 15 Norte 0 -- -- 61
2020-09-13 23:00:00 19.2 11 Norte 15 Norte 0 -- -- 56
2020-09-13 22:00:00 20.6 9 Nordeste 12 Norte 0 -- -- 52
2020-09-13 21:00:00 22.9 6 Nordeste 9 Nordeste 0 -- -- 48
2020-09-13 20:00:00 26.9 4 Sudeste 21 Sudoeste 0 -- -- 36
2020-09-13 19:00:00 29.2 9 Sudoeste 22 Sur 0 -- -- 32
2020-09-13 18:00:00 30.2 9 Sur 26 Sur 0 -- -- 28
2020-09-13 17:00:00 30.3 6 Sudoeste 22 Sudoeste 0 -- -- 28
2020-09-13 16:00:00 30 11 Sur 21 Sur 0 -- -- 26
2020-09-13 15:00:00 29.5 9 Sudoeste 19 Sudoeste 0 -- -- 26
2020-09-13 14:00:00 28.3 9 Sur 22 Sudoeste 0 -- -- 27
2020-09-13 13:00:00 26.2 8 Este 19 Sudeste 0 -- -- 32
2020-09-13 12:00:00 24.5 9 Este 17 Sudeste 0 -- -- 33
2020-09-13 11:00:00 22.9 3 Sur 10 Sudoeste 0 -- -- 37
2020-09-13 10:00:00 17.7 3 Nordeste 11 Nordeste 0 -- -- 49
2020-09-13 09:00:00 13.5 9 Norte 15 Norte 0 -- -- 58
2020-09-13 08:00:00 12 9 Nordeste 13 Norte 0 -- -- 63
2020-09-13 07:00:00 12.1 10 Nordeste 15 Norte 0 -- -- 60
2020-09-13 06:00:00 12.7 10 Norte 16 Norte 0 -- -- 63
2020-09-13 05:00:00 12.6 11 Norte 16 Norte 0 -- -- 69
2020-09-13 04:00:00 13.1 10 Norte 16 Norte 0 -- -- 68
2020-09-13 03:00:00 13.5 9 Nordeste 14 Norte 0 -- -- 66
2020-09-13 02:00:00 13.8 10 Norte 15 Norte 0 -- -- 65
2020-09-13 01:00:00 14.4 12 Norte 16 Norte 0 -- -- 58
2020-09-13 00:00:00 15.8 13 Norte 17 Norte 0 -- -- 53
2020-09-12 23:00:00 16.5 13 Norte 19 Norte 0 -- -- 53
2020-09-12 22:00:00 17.9 10 Nordeste 14 Norte 0 -- -- 51
2020-09-12 21:00:00 21.6 9 Norte 11 Norte 0 -- -- 45
2020-09-12 20:00:00 25.9 6 Sur 15 Sur 0 -- -- 29
2020-09-12 19:00:00 27.5 8 Sur 18 Sudoeste 0 -- -- 28
2020-09-12 18:00:00 28.1 8 Sur 19 Sur 0 -- -- 27
2020-09-12 17:00:00 27.6 3 Este 17 Sur 0 -- -- 26
2020-09-12 16:00:00 27.6 12 Sur 20 Sur 0 -- -- 26
2020-09-12 15:00:00 27.7 8 Sudoeste 19 Sur 0 -- -- 25
2020-09-12 14:00:00 26.4 8 Sur 19 Sudoeste 0 -- -- 24
2020-09-12 13:00:00 25.2 8 Sudoeste 18 Sur 0 -- -- 32
2020-09-12 12:00:00 23.2 5 Sudoeste 13 Sudoeste 0 -- -- 43
2020-09-12 11:00:00 20.7 4 Sudoeste 9 Sudoeste 0 -- -- 53
2020-09-12 10:00:00 16.5 2 Sudoeste 15 Norte 0 -- -- 73
2020-09-12 09:00:00 13 12 Norte 17 Norte 0 -- -- 78
2020-09-12 08:00:00 11.7 12 Norte 14 Norte 0 -- -- 83
2020-09-12 07:00:00 12 8 Nordeste 13 Norte 0 -- -- 84
2020-09-12 06:00:00 12.5 7 Nordeste 13 Norte 0 -- -- 83
2020-09-12 05:00:00 13.1 6 Nordeste 14 Norte 0 -- -- 80
2020-09-12 04:00:00 13.9 7 Nordeste 12 Norte 0 -- -- 76
2020-09-12 03:00:00 14.6 8 Norte 13 Nordeste 0 -- -- 75
2020-09-12 02:00:00 15.5 8 Nordeste 14 Norte 0 -- -- 75
2020-09-12 01:00:00 15.9 6 Nordeste 12 Norte 0 -- -- 75
2020-09-12 00:00:00 16.8 3 Nordeste 10 Norte 0 -- -- 75
2020-09-11 23:00:00 18 6 Norte 9 Norte 0 -- -- 65
2020-09-11 22:00:00 18.9 6 Norte 11 Norte 0 -- -- 65
2020-09-11 21:00:00 21.1 8 Nordeste 12 Sudeste 0 -- -- 60
2020-09-11 20:00:00 24.4 9 Sudeste 15 Sudeste 0 -- -- 41
2020-09-11 19:00:00 26.2 8 Sur 22 Sur 0 -- -- 36
2020-09-11 18:00:00 27.3 9 Sur 23 Sudoeste 0 -- -- 34
2020-09-11 17:00:00 27.9 5 Sudoeste 27 Sudoeste 0 -- -- 30
2020-09-11 16:00:00 27.3 8 Sur 18 Sudoeste 0 -- -- 33
2020-09-11 15:00:00 25.7 7 Sur 18 Sudoeste 0 -- -- 39
2020-09-11 14:00:00 23.7 6 Este 16 Sudeste 0 -- -- 46
2020-09-11 13:00:00 22.4 3 Sur 14 Sudeste 0 -- -- 47
2020-09-11 12:00:00 20.6 5 Sur 15 Sudoeste 0 -- -- 51
2020-09-11 11:00:00 18.9 4 Sudeste 13 Sudeste 0 -- -- 59
2020-09-11 10:00:00 15.5 2 Nordeste 9 Norte 0 -- -- 71
2020-09-11 09:00:00 11.9 7 Nordeste 13 Norte 0 -- -- 86
2020-09-11 08:00:00 10.9 9 Norte 13 Norte 0 -- -- 89
2020-09-11 07:00:00 11.3 9 Norte 12 Norte 0 -- -- 88
2020-09-11 06:00:00 11.7 9 Norte 15 Norte 0 -- -- 87
2020-09-11 05:00:00 12 7 Norte 12 Norte 0 -- -- 85
2020-09-11 04:00:00 12.3 6 Nordeste 9 Norte 0 -- -- 85
2020-09-11 03:00:00 12.5 7 Nordeste 9 Nordeste 0 -- -- 85
2020-09-11 02:00:00 13.8 6 Norte 11 Norte 0 -- -- 80
2020-09-11 01:00:00 14.3 8 Norte 10 Norte 0 -- -- 79
2020-09-11 00:00:00 15.9 5 Norte 14 Norte 0 -- -- 70
2020-09-10 23:00:00 16.9 11 Norte 14 Norte 0 -- -- 67
2020-09-10 22:00:00 18.4 9 Norte 13 Norte 0 -- -- 61
2020-09-10 21:00:00 21.2 5 Nordeste 9 Nordeste 0 -- -- 54
2020-09-10 20:00:00 24.1 4 Sur 18 Sudeste 0 -- -- 41
2020-09-10 19:00:00 26.7 10 Sur 18 Sur 0 -- -- 36
2020-09-10 18:00:00 27.5 8 Sur 20 Sur 0 -- -- 34
2020-09-10 17:00:00 27.3 6 Sur 20 Sur 0 -- -- 32
2020-09-10 16:00:00 25.8 10 Este 17 Sudoeste 0 -- -- 36
2020-09-10 15:00:00 25.2 5 Nordeste 14 Oeste 0 -- -- 39
2020-09-10 14:00:00 23.9 5 Sudoeste 13 Sur 0 -- -- 40
2020-09-10 13:00:00 22.7 5 Sudoeste 17 Sur 0 -- -- 45
2020-09-10 12:00:00 21.4 6 Sudoeste 15 Oeste 0 -- -- 50
2020-09-10 11:00:00 19.6 5 Sudoeste 11 Sur 0 -- -- 55
2020-09-10 10:00:00 15.9 0 Calma 12 Norte 0 -- -- 71
2020-09-10 09:00:00 12.2 8 Norte 14 Norte 0 -- -- 82
2020-09-10 08:00:00 10.7 9 Norte 15 Norte 0 -- -- 84
2020-09-10 07:00:00 11 10 Norte 18 Norte 0 -- -- 83
2020-09-10 06:00:00 11.3 12 Norte 15 Norte 0 -- -- 83
2020-09-10 05:00:00 11.2 8 Nordeste 14 Norte 0 -- -- 81
2020-09-10 04:00:00 10.9 6 Nordeste 9 Nordeste 0 -- -- 80
2020-09-10 03:00:00 11.4 6 Nordeste 9 Nordeste 0 -- -- 76
2020-09-10 02:00:00 12.8 7 Norte 13 Norte 0 -- -- 67
2020-09-10 01:00:00 13.2 10 Norte 16 Sur 0 -- -- 64
2020-09-10 00:00:00 14.8 9 Norte 15 Norte 0 -- -- 59
2020-09-09 23:00:00 15.5 12 Norte 20 Norte 0 -- -- 54
2020-09-09 22:00:00 16.9 12 Norte 17 Norte 0 -- -- 51
2020-09-09 21:00:00 20.6 5 Nordeste 11 Sudoeste 0 -- -- 46
2020-09-09 20:00:00 24.5 5 Sur 16 Sudoeste 0 -- -- 31
2020-09-09 19:00:00 26.3 8 Sur 18 Sur 0 -- -- 28
2020-09-09 18:00:00 26.8 8 Sur 18 Sur 0 -- -- 26
2020-09-09 17:00:00 26.6 6 Sudeste 20 Sur 0 -- -- 26
2020-09-09 16:00:00 26.1 6 Sudeste 19 Nordeste 0 -- -- 29
2020-09-09 15:00:00 25.3 4 Noroeste 14 Sudoeste 0 -- -- 30
2020-09-09 14:00:00 23.7 6 Oeste 16 Sudoeste 0 -- -- 34
2020-09-09 13:00:00 23.1 6 Sudoeste 20 Sudoeste 0 -- -- 36
2020-09-09 12:00:00 21.6 7 Sudeste 18 Sur 0 -- -- 39
2020-09-09 11:00:00 19.7 5 Sur 13 Sur 0 -- -- 47
2020-09-09 10:00:00 15.9 0 Calma 9 Norte 0 -- -- 58
2020-09-09 09:00:00 11.3 7 Norte 14 Norte 0 -- -- 72
2020-09-09 08:00:00 8.5 7 Nordeste 13 Nordeste 0 -- -- 85
2020-09-09 07:00:00 9 6 Nordeste 12 Norte 0 -- -- 82
2020-09-09 06:00:00 9.7 6 Nordeste 15 Norte 0 -- -- 79
2020-09-09 05:00:00 10.7 11 Norte 15 Norte 0 -- -- 71
2020-09-09 04:00:00 11.4 8 Norte 16 Norte 0 -- -- 67
2020-09-09 03:00:00 11.6 12 Norte 16 Norte 0 -- -- 66
2020-09-09 02:00:00 11.4 12 Norte 17 Norte 0 -- -- 69
2020-09-09 01:00:00 11.8 9 Norte 15 Norte 0 -- -- 68
2020-09-09 00:00:00 12.5 12 Norte 17 Norte 0 -- -- 65
2020-09-08 23:00:00 13.5 13 Norte 17 Norte 0 -- -- 63
2020-09-08 22:00:00 15.3 12 Norte 15 Norte 0 -- -- 57
2020-09-08 21:00:00 19.2 4 Nordeste 9 Sur 0 -- -- 51
2020-09-08 20:00:00 22.5 4 Sudoeste 16 Sur 0 -- -- 35
2020-09-08 19:00:00 23.4 6 Sur 16 Sudoeste 0 -- -- 34
2020-09-08 18:00:00 23.5 8 Sudeste 19 Sur 0 -- -- 34
2020-09-08 17:00:00 22.7 12 Sudeste 27 Sur 0 -- -- 36
2020-09-08 16:00:00 22.5 10 Sur 25 Sur 0 -- -- 35
2020-09-08 15:00:00 22 10 Sur 22 Sur 0 -- -- 37
2020-09-08 14:00:00 20.2 12 Sudeste 32 Este 0 -- -- 37
2020-09-08 13:00:00 18.6 11 Sudeste 22 Sur 0 -- -- 42
2020-09-08 12:00:00 16.8 6 Sur 16 Sur 0 -- -- 48
2020-09-08 11:00:00 13.7 3 Oeste 9 Oeste 0 -- -- 63
2020-09-08 10:00:00 10.9 0 Calma 10 Norte 0 -- -- 75
2020-09-08 09:00:00 7.5 6 Nordeste 11 Nordeste 0 -- -- 94
2020-09-08 08:00:00 6.3 6 Norte 14 Norte 0 -- -- 95
2020-09-08 07:00:00 6.6 4 Nordeste 9 Nordeste 0 -- -- 95
2020-09-08 06:00:00 7.4 3 Nordeste 11 Norte 0 -- -- 92
2020-09-08 05:00:00 7.8 8 Nordeste 12 Norte 0 -- -- 91
2020-09-08 04:00:00 7.7 8 Nordeste 12 Nordeste 0 -- -- 92
2020-09-08 03:00:00 8.5 9 Norte 12 Norte 0 -- -- 88
2020-09-08 02:00:00 9 6 Nordeste 12 Nordeste 0 -- -- 88
2020-09-08 01:00:00 9.9 6 Nordeste 9 Norte 0 -- -- 85
2020-09-08 00:00:00 11.7 5 Nordeste 8 Nordeste 0 -- -- 80
2020-09-07 23:00:00 13.1 6 Nordeste 10 Nordeste 0 -- -- 75
2020-09-07 22:00:00 15 5 Nordeste 9 Nordeste 0 -- -- 67
2020-09-07 21:00:00 18.6 3 Sur 10 Sudoeste 0 -- -- 49
2020-09-07 20:00:00 21.3 4 Sudoeste 14 Sur 0 -- -- 43
2020-09-07 19:00:00 22 8 Sur 18 Sur 0 -- -- 39
2020-09-07 18:00:00 22.6 8 Sur 23 Sur 0 -- -- 40
2020-09-07 17:00:00 22.4 11 Sudoeste 22 Sudoeste 0 -- -- 41
2020-09-07 16:00:00 21.1 14 Sudoeste 30 Sur 0 -- -- 43
2020-09-07 15:00:00 20.3 13 Sur 24 Sur 0 -- -- 45
2020-09-07 14:00:00 19.9 10 Sur 23 Sudoeste 0 -- -- 45
2020-09-07 13:00:00 18 8 Sudoeste 23 Sur 0 -- -- 49
2020-09-07 12:00:00 16.5 9 Sudoeste 20 Sur 0 -- -- 56
2020-09-07 11:00:00 13.9 5 Sudoeste 13 Sur 0 -- -- 67
2020-09-07 10:00:00 10.5 0 Calma 9 Norte 0 -- -- 85
2020-09-07 09:00:00 7.5 7 Nordeste 12 Nordeste 0 -- -- 96
2020-09-07 08:00:00 6.7 9 Norte 12 Norte 0 -- -- 96
2020-09-07 07:00:00 7.1 7 Nordeste 10 Norte 0 -- -- 95
2020-09-07 06:00:00 7.3 7 Nordeste 12 Nordeste 0 -- -- 94
2020-09-07 05:00:00 8.1 6 Nordeste 9 Nordeste 0 -- -- 93
2020-09-07 04:00:00 8.9 5 Norte 10 Norte 0 -- -- 91
2020-09-07 03:00:00 9.6 5 Nordeste 9 Nordeste 0 -- -- 90
2020-09-07 02:00:00 10.6 5 Nordeste 9 Nordeste 0 -- -- 86
2020-09-07 01:00:00 11.9 6 Nordeste 11 Nordeste 0 -- -- 81
2020-09-07 00:00:00 13.6 5 Nordeste 10 Oeste 0 -- -- 74
2020-09-06 23:00:00 15.2 3 Oeste 9 Sudeste 0 -- -- 57
2020-09-06 22:00:00 17.7 6 Sudeste 15 Sudeste 0 -- -- 49
2020-09-06 21:00:00 21.7 0 Calma 17 Sudeste 0 -- -- 47
2020-09-06 20:00:00 25 4 Sudoeste 18 Oeste 0 -- -- 46
2020-09-06 19:00:00 26.9 12 Noroeste 25 Oeste 0 -- -- 25
2020-09-06 18:00:00 26.9 8 Sudoeste 24 Oeste 0 -- -- 40
2020-09-06 17:00:00 26.7 11 Sudoeste 21 Sudoeste 0 -- -- 40
2020-09-06 16:00:00 25.7 6 Sudeste 15 Oeste 0 -- -- 42
2020-09-06 15:00:00 23.9 5 Sur 17 Sur 0 -- -- 48
2020-09-06 14:00:00 22.9 5 Sudeste 15 Sudoeste 0 -- -- 52
2020-09-06 13:00:00 21 5 Sur 13 Sur 0 -- -- 58
2020-09-06 12:00:00 18.8 5 Oeste 14 Sudoeste 0 -- -- 65
2020-09-06 11:00:00 16.8 4 Sur 12 Sur 0 -- -- 75
2020-09-06 10:00:00 14.3 2 Sudoeste 10 Oeste 0 -- -- 85
2020-09-06 09:00:00 12.7 6 Oeste 12 Oeste 0 -- -- 91
2020-09-06 08:00:00 13.1 4 Oeste 7 Sudoeste 0 -- -- 89
2020-09-06 07:00:00 13.6 2 Sudoeste 5 Sudoeste 0 -- -- 87
2020-09-06 06:00:00 13.9 0 Calma 7 Nordeste 0 -- -- 87
2020-09-06 05:00:00 13.5 4 Este 9 Nordeste 0 -- -- 90
2020-09-06 04:00:00 12.9 3 Nordeste 8 Este 0 -- -- 89
2020-09-06 03:00:00 13.3 3 Nordeste 8 Norte 0 -- -- 83
2020-09-06 02:00:00 14.5 7 Norte 11 Norte 0 -- -- 77
2020-09-06 01:00:00 16.3 4 Nordeste 13 Norte 0 -- -- 71
2020-09-06 00:00:00 17.6 2 Oeste 9 Nordeste 0 -- -- 64
2020-09-05 23:00:00 18.8 3 Noroeste 11 Nordeste 0 -- -- 61
2020-09-05 22:00:00 20.8 4 Nordeste 29 Sudeste 0 -- -- 55
2020-09-05 21:00:00 23.6 11 Norte 20 Nordeste 0 -- -- 46
2020-09-05 20:00:00 26.5 12 Este 17 Sudeste 0 -- -- 41
2020-09-05 19:00:00 28.9 7 Noroeste 20 Oeste 0 -- -- 31
2020-09-05 18:00:00 29 6 Norte 26 Nordeste 0 -- -- 31
2020-09-05 17:00:00 29.4 13 Oeste 24 Sudoeste 0 -- -- 26
2020-09-05 16:00:00 29.3 9 Sudoeste 21 Oeste 0 -- -- 33
2020-09-05 15:00:00 28 6 Sudoeste 21 Sudoeste 0 -- -- 36
2020-09-05 14:00:00 26.4 5 Sur 14 Sudeste 0 -- -- 38
2020-09-05 13:00:00 25.8 6 Sudoeste 19 Sudoeste 0 -- -- 39
2020-09-05 12:00:00 24.5 8 Sur 18 Sur 0 -- -- 41
2020-09-05 11:00:00 23 6 Sudoeste 14 Sur 0 -- -- 44
2020-09-05 10:00:00 18.6 4 Nordeste 10 Norte 0 -- -- 62
2020-09-05 09:00:00 15.6 6 Norte 14 Norte 0 -- -- 69
2020-09-05 08:00:00 13.8 6 Nordeste 15 Norte 0 -- -- 78
2020-09-05 07:00:00 14.4 12 Norte 15 Norte 0 -- -- 75
2020-09-05 06:00:00 14.4 12 Norte 15 Norte 0 -- -- 82
2020-09-05 05:00:00 14.7 10 Norte 17 Noroeste 0 -- -- 82
2020-09-05 04:00:00 16.1 6 Nordeste 21 Norte 0 -- -- 74
2020-09-05 03:00:00 16.8 15 Norte 21 Norte 0 -- -- 69
2020-09-05 02:00:00 17.4 13 Norte 18 Norte 0 -- -- 66
2020-09-05 01:00:00 19.2 11 Norte 16 Noroeste 0 -- -- 60
2020-09-05 00:00:00 18.8 14 Norte 17 Norte 0 -- -- 62
2020-09-04 23:00:00 20.6 13 Norte 18 Norte 0 -- -- 55
2020-09-04 22:00:00 22.1 9 Norte 15 Norte 0 -- -- 48
2020-09-04 21:00:00 24.4 4 Norte 13 Noroeste 0 -- -- 38
2020-09-04 20:00:00 28.4 10 Oeste 21 Oeste 0 -- -- 27
2020-09-04 19:00:00 28.5 14 Norte 27 Norte 0 -- -- 29
2020-09-04 18:00:00 30.4 7 Oeste 22 Sudoeste 0 -- -- 28
2020-09-04 17:00:00 30.2 13 Sudoeste 24 Sur 0 -- -- 27
2020-09-04 16:00:00 29.5 9 Sur 22 Sudoeste 0 -- -- 28
2020-09-04 15:00:00 28.9 7 Sudoeste 22 Sur 0 -- -- 27
2020-09-04 14:00:00 28.1 12 Sudoeste 26 Sudoeste 0 -- -- 29
2020-09-04 13:00:00 26.4 5 Sur 14 Sur 0 -- -- 32
2020-09-04 12:00:00 24.7 5 Sur 15 Sudoeste 0 -- -- 37
2020-09-04 11:00:00 21.9 6 Sudoeste 12 Sur 0 -- -- 39
2020-09-04 10:00:00 18 0 Calma 9 Norte 0 -- -- 57
2020-09-04 09:00:00 14 8 Norte 14 Norte 0 -- -- 70
2020-09-04 08:00:00 12.4 10 Nordeste 15 Norte 0 -- -- 75
2020-09-04 07:00:00 12.6 7 Norte 17 Norte 0 -- -- 69
2020-09-04 06:00:00 13.1 12 Norte 19 Norte 0 -- -- 67
2020-09-04 05:00:00 12.9 13 Norte 18 Norte 0 -- -- 67
2020-09-04 04:00:00 13 7 Nordeste 11 Norte 0 -- -- 72
2020-09-04 03:00:00 14.4 9 Norte 14 Norte 0 -- -- 67
2020-09-04 02:00:00 14.8 12 Norte 15 Norte 0 -- -- 62
2020-09-04 01:00:00 15.3 12 Norte 17 Norte 0 -- -- 63
2020-09-04 00:00:00 16 12 Norte 17 Norte 0 -- -- 63
2020-09-03 23:00:00 17.2 14 Norte 17 Norte 0 -- -- 63
2020-09-03 22:00:00 19 9 Norte 12 Norte 0 -- -- 60
2020-09-03 21:00:00 23.3 3 Este 14 Sur 0 -- -- 49
2020-09-03 20:00:00 26.4 8 Sur 19 Sudoeste 0 -- -- 38
2020-09-03 19:00:00 28.1 10 Sudoeste 19 Sur 0 -- -- 36
2020-09-03 18:00:00 28.9 8 Sudoeste 24 Oeste 0 -- -- 32
2020-09-03 17:00:00 28.5 10 Oeste 21 Oeste 0 -- -- 33
2020-09-03 16:00:00 28.1 9 Sudoeste 19 Sur 0 -- -- 36
2020-09-03 15:00:00 26.5 10 Sur 22 Este 0 -- -- 37
2020-09-03 14:00:00 25.5 8 Sur 17 Sur 0 -- -- 41
2020-09-03 13:00:00 23.6 4 Sudeste 14 Oeste 0 -- -- 45
2020-09-03 12:00:00 20.9 4 Sur 12 Sur 0 -- -- 51
2020-09-03 11:00:00 18.8 5 Sudoeste 10 Sudoeste 0 -- -- 57
2020-09-03 10:00:00 15.4 3 Nordeste 12 Norte 0 -- -- 74
2020-09-03 09:00:00 11.8 12 Norte 16 Norte 0 -- -- 83
2020-09-03 08:00:00 10.3 10 Norte 14 Norte 0 -- -- 88
2020-09-03 07:00:00 10.5 9 Norte 14 Norte 0 -- -- 86
2020-09-03 06:00:00 10.7 9 Norte 15 Norte 0 -- -- 84
2020-09-03 05:00:00 11 9 Norte 14 Norte 0 -- -- 81
2020-09-03 04:00:00 11.5 12 Norte 17 Norte 0 -- -- 73
2020-09-03 03:00:00 12.1 10 Norte 16 Norte 0 -- -- 74
2020-09-03 02:00:00 11.6 7 Sur 17 Sudeste 0 -- -- 72
2020-09-03 01:00:00 13.6 10 Norte 16 Norte 0 -- -- 67
2020-09-03 00:00:00 14 13 Norte 16 Norte 0 -- -- 68
2020-09-02 23:00:00 14.8 12 Norte 16 Norte 0 -- -- 67
2020-09-02 22:00:00 16.6 6 Nordeste 9 Norte 0 -- -- 63
2020-09-02 21:00:00 20.8 2 Sudeste 14 Sur 0 -- -- 48
2020-09-02 20:00:00 23.4 6 Sudoeste 16 Sudoeste 0 -- -- 41
2020-09-02 19:00:00 24.8 8 Sur 19 Sur 0 -- -- 36
2020-09-02 18:00:00 25.1 5 Sur 15 Sur 0 -- -- 34
2020-09-02 17:00:00 23.4 4 Sudeste 15 Sur 0 -- -- 37
2020-09-02 16:00:00 22.8 5 Oeste 13 Noroeste 0 -- -- 43
2020-09-02 15:00:00 21.4 6 Nordeste 19 Sur 0 -- -- 46
2020-09-02 14:00:00 20.4 8 Sudeste 16 Sur 0 -- -- 50
2020-09-02 13:00:00 19.1 8 Sur 18 Sudoeste 0 -- -- 53
2020-09-02 12:00:00 17.2 7 Sur 17 Sur 0 -- -- 60
2020-09-02 11:00:00 15.3 4 Sudoeste 11 Oeste 0 -- -- 69
2020-09-02 10:00:00 13.5 3 Sudoeste 12 Norte 0 -- -- 77
2020-09-02 09:00:00 9.9 10 Norte 17 Norte 0 -- -- 93
2020-09-02 08:00:00 8.7 9 Norte 14 Norte 0 -- -- 96
2020-09-02 07:00:00 9 6 Nordeste 10 Nordeste 0 -- -- 95
2020-09-02 06:00:00 9.6 5 Nordeste 9 Nordeste 0 -- -- 94
2020-09-02 05:00:00 9.9 5 Nordeste 10 Oeste 0 -- -- 93
2020-09-02 04:00:00 10.6 5 Sudoeste 12 Norte 0 -- -- 82
2020-09-02 03:00:00 11.9 6 Nordeste 9 Nordeste 0 -- -- 86
2020-09-02 02:00:00 13.2 3 Oeste 20 Norte 0 -- -- 76
2020-09-02 01:00:00 14.3 13 Norte 19 Norte 0 -- -- 76
2020-09-02 00:00:00 15 10 Norte 20 Norte 0 -- -- 71
2020-09-01 23:00:00 15.8 14 Norte 27 Norte 0 -- -- 69
2020-09-01 22:00:00 16.8 14 Norte 22 Nordeste 0 -- -- 68
2020-09-01 21:00:00 18 15 Nordeste 28 Nordeste 0 -- -- 66
2020-09-01 20:00:00 20.1 26 Nordeste 37 Nordeste 0 -- -- 56
2020-09-01 19:00:00 22.8 13 Este 24 Este 0 -- -- 37
2020-09-01 18:00:00 24.1 6 Norte 24 Oeste 0 -- -- 35
2020-09-01 17:00:00 23.8 5 Sudeste 16 Este 0 -- -- 36
2020-09-01 16:00:00 21.9 4 Este 18 Nordeste 0 -- -- 40
2020-09-01 15:00:00 21.7 4 Este 18 Nordeste 0 -- -- 37
2020-09-01 14:00:00 20.9 3 Oeste 15 Sur 0 -- -- 38
2020-09-01 13:00:00 20.6 5 Sudeste 13 Sur 0 -- -- 40
2020-09-01 12:00:00 18.5 5 Sudoeste 8 Sudoeste 0 -- -- 45
2020-09-01 11:00:00 16.9 4 Sudoeste 10 Noroeste 0 -- -- 50
2020-09-01 10:00:00 13.7 2 Sudoeste 10 Norte 0 -- -- 65
2020-09-01 09:00:00 11.2 9 Norte 14 Norte 0 -- -- 74
2020-09-01 08:00:00 11.6 3 Nordeste 10 Norte 0 -- -- 75
2020-09-01 07:00:00 12 5 Norte 9 Nordeste 0 -- -- 71
2020-09-01 06:00:00 12.1 7 Nordeste 11 Nordeste 0 -- -- 72
2020-09-01 05:00:00 12.5 4 Norte 12 Norte 0 -- -- 67
2020-09-01 04:00:00 12.3 8 Norte 11 Norte 0 -- -- 70
2020-09-01 03:00:00 12.4 5 Norte 8 Norte 0 -- -- 71
2020-09-01 02:00:00 12.9 8 Norte 16 Norte 0 -- -- 66
2020-09-01 01:00:00 12.5 12 Norte 16 Norte 0 -- -- 67
2020-09-01 00:00:00 12.4 10 Norte 14 Norte 0 -- -- 68
2020-08-31 23:00:00 13.2 6 Nordeste 10 Nordeste 0 -- -- 67
2020-08-31 22:00:00 15.1 3 Nordeste 9 Nordeste 0 -- -- 59
2020-08-31 21:00:00 17.1 4 Norte 13 Nordeste 0 -- -- 50
2020-08-31 20:00:00 18.5 7 Noroeste 20 Oeste 0 -- -- 38
2020-08-31 19:00:00 19.4 15 Oeste 28 Noroeste 0 -- -- 36
2020-08-31 18:00:00 19.2 15 Noroeste 28 Oeste 0 -- -- 42
2020-08-31 17:00:00 19.4 17 Noroeste 25 Noroeste 0 -- -- 39
2020-08-31 16:00:00 19 5 Sur 17 Sudoeste 0 -- -- 44
2020-08-31 15:00:00 19.4 9 Sur 21 Sur 0 -- -- 43
2020-08-31 14:00:00 18.2 9 Sudoeste 18 Sudoeste 0 -- -- 44
2020-08-31 13:00:00 16.3 6 Este 16 Sudoeste 0 -- -- 52
2020-08-31 12:00:00 14 6 Sur 13 Sur 0 -- -- 59
2020-08-31 11:00:00 12.5 4 Este 11 Sudeste 0 -- -- 64
2020-08-31 10:00:00 10.4 3 Sur 11 Norte 0 -- -- 73
2020-08-31 09:00:00 6.8 9 Norte 15 Norte 0 -- -- 93
2020-08-31 08:00:00 4.9 11 Norte 15 Norte 0 -- -- 97
2020-08-31 07:00:00 5.1 10 Nordeste 14 Norte 0 -- -- 96
2020-08-31 06:00:00 5.4 11 Norte 17 Norte 0 -- -- 95
2020-08-31 05:00:00 5.7 10 Norte 12 Norte 0 -- -- 95
2020-08-31 04:00:00 5.9 7 Nordeste 12 Norte 0 -- -- 94
2020-08-31 03:00:00 6.4 6 Nordeste 10 Nordeste 0 -- -- 91
2020-08-31 02:00:00 7 8 Norte 13 Norte 0 -- -- 89
2020-08-31 01:00:00 7.4 7 Nordeste 10 Nordeste 0 -- -- 88
2020-08-31 00:00:00 8.6 5 Nordeste 12 Norte 0 -- -- 80
2020-08-30 23:00:00 10.3 5 Norte 10 Norte 0 -- -- 73
2020-08-30 22:00:00 12.2 9 Nordeste 19 Este 0 -- -- 67
2020-08-30 21:00:00 14.1 10 Este 21 Nordeste 0 -- -- 60
2020-08-30 20:00:00 16.3 14 Nordeste 23 Nordeste 0 -- -- 50
2020-08-30 19:00:00 16.4 9 Sudeste 16 Sudeste 0 -- -- 45
2020-08-30 18:00:00 17 6 Norte 19 Nordeste 0 -- -- 40
2020-08-30 17:00:00 17.2 6 Sudeste 23 Este 0 -- -- 42
2020-08-30 16:00:00 15.5 9 Este 24 Este 0 -- -- 45
2020-08-30 15:00:00 16 9 Sudeste 20 Este 0 -- -- 41
2020-08-30 14:00:00 16.1 5 Nordeste 12 Oeste 0 -- -- 43
2020-08-30 13:00:00 14.5 6 Sur 24 Este 0 -- -- 45
2020-08-30 12:00:00 13 5 Norte 19 Este 0 -- -- 49
2020-08-30 11:00:00 12.3 4 Este 14 Nordeste 0 -- -- 65
2020-08-30 10:00:00 8.9 9 Oeste 14 Oeste 0 -- -- 86
2020-08-30 09:00:00 7.5 2 Noroeste 10 Norte 0 -- -- 89
2020-08-30 08:00:00 5.8 4 Norte 10 Norte 0 -- -- 92
2020-08-30 07:00:00 6 2 Sudeste 17 Noroeste 0 -- -- 88
2020-08-30 06:00:00 6.2 3 Noroeste 13 Nordeste 0 -- -- 87
2020-08-30 05:00:00 6 3 Sudeste 8 Norte 0 -- -- 85
2020-08-30 04:00:00 5.5 5 Oeste 10 Sudoeste 0 -- -- 84
2020-08-30 03:00:00 7.2 3 Sur 15 Noroeste 0 -- -- 76
2020-08-30 02:00:00 8.8 7 Noroeste 17 Noroeste 0 -- -- 70
2020-08-30 01:00:00 9.5 9 Norte 21 Noroeste 0 -- -- 73
2020-08-30 00:00:00 10.5 13 Nordeste 32 Norte 0 -- -- 69
2020-08-29 23:00:00 11 26 Norte 40 Norte 0 -- -- 69
2020-08-29 22:00:00 10.9 21 Nordeste 32 Norte 0 -- -- 70
2020-08-29 21:00:00 11.7 15 Nordeste 36 Norte 0 -- -- 67
2020-08-29 20:00:00 12.6 19 Norte 40 Norte 0 -- -- 67
2020-08-29 19:00:00 13.4 24 Norte 44 Norte 0 -- -- 62
2020-08-29 18:00:00 14.1 31 Nordeste 47 Nordeste 0 -- -- 62
2020-08-29 17:00:00 14.7 28 Norte 47 Nordeste 0 -- -- 57
2020-08-29 16:00:00 14.6 36 Norte 49 Norte 0 -- -- 57
2020-08-29 15:00:00 14.6 28 Nordeste 52 Norte 0 -- -- 61
2020-08-29 14:00:00 14.6 31 Norte 49 Norte 0 -- -- 61
2020-08-29 13:00:00 13.5 26 Norte 42 Norte 0 -- -- 62
2020-08-29 12:00:00 12.6 21 Norte 32 Noroeste 0 -- -- 69
2020-08-29 11:00:00 11.4 14 Noroeste 26 Noroeste 0 -- -- 78
2020-08-29 10:00:00 10.2 11 Noroeste 22 Noroeste 0 -- -- 79
2020-08-29 09:00:00 9.5 5 Nordeste 16 Noroeste 0 -- -- 87
2020-08-29 08:00:00 8.1 10 Oeste 17 Norte 0 -- -- 91
2020-08-29 07:00:00 8.8 7 Noroeste 22 Noroeste 0 -- -- 91
2020-08-29 06:00:00 8.7 8 Noroeste 23 Noroeste 0 -- -- 91
2020-08-29 05:00:00 8.5 7 Noroeste 17 Noroeste 0 -- -- 89
2020-08-29 04:00:00 8.8 10 Norte 24 Norte 0 -- -- 84
2020-08-29 03:00:00 8.5 10 Nordeste 19 Noroeste 0 -- -- 86
2020-08-29 02:00:00 9.3 10 Noroeste 22 Noroeste 0 -- -- 77
2020-08-29 01:00:00 10.1 7 Norte 19 Noroeste 0 -- -- 72
2020-08-29 00:00:00 10.8 9 Nordeste 31 Norte 0 -- -- 71
2020-08-28 23:00:00 11.1 14 Norte 34 Norte 0 -- -- 69
2020-08-28 22:00:00 12.4 19 Norte 36 Norte 0 -- -- 65
2020-08-28 21:00:00 14.1 15 Norte 39 Noroeste 0 -- -- 61
2020-08-28 20:00:00 16.5 18 Noroeste 34 Noroeste 0 -- -- 47
2020-08-28 19:00:00 17.6 19 Noroeste 37 Norte 0 -- -- 43
2020-08-28 18:00:00 18.2 22 Noroeste 51 Noroeste 0 -- -- 42
2020-08-28 17:00:00 18.5 28 Noroeste 51 Oeste 0 -- -- 42
2020-08-28 16:00:00 18.8 29 Noroeste 56 Noroeste 0 -- -- 43
2020-08-28 15:00:00 18.8 27 Noroeste 45 Oeste 0 -- -- 44
2020-08-28 14:00:00 18.4 23 Noroeste 46 Noroeste 0 -- -- 46
2020-08-28 13:00:00 17.6 24 Noroeste 41 Noroeste 0 -- -- 48
2020-08-28 12:00:00 15.8 26 Noroeste 41 Oeste 0 -- -- 52
2020-08-28 11:00:00 14.7 23 Oeste 37 Oeste 0 -- -- 60
2020-08-28 10:00:00 14.5 13 Noroeste 24 Noroeste 0 -- -- 70
2020-08-28 09:00:00 13.5 5 Norte 13 Oeste 0 -- -- 80
2020-08-28 08:00:00 13.1 7 Norte 14 Norte 0 -- -- 91
2020-08-28 07:00:00 14.1 9 Norte 17 Noroeste 0 -- -- 86
2020-08-28 06:00:00 15.2 6 Norte 15 Noroeste 0 -- -- 86
2020-08-28 05:00:00 15.9 6 Norte 18 Nordeste 0 -- -- 86
2020-08-28 04:00:00 16.5 10 Nordeste 20 Este 0 -- -- 84
2020-08-28 03:00:00 16.9 8 Sudeste 25 Noroeste 0 -- -- 80
2020-08-28 02:00:00 17.6 8 Norte 41 Norte 0 -- -- 76
2020-08-28 01:00:00 18.5 25 Norte 42 Noroeste 0 -- -- 68
2020-08-28 00:00:00 19.2 21 Noroeste 42 Noroeste 0 -- -- 64
2020-08-27 23:00:00 19.9 25 Noroeste 46 Norte 0 -- -- 64
2020-08-27 22:00:00 21 26 Noroeste 55 Noroeste 0 -- -- 59
2020-08-27 21:00:00 22.3 27 Noroeste 50 Noroeste 0 -- -- 55
2020-08-27 20:00:00 24.4 24 Noroeste 45 Noroeste 0 -- -- 48
2020-08-27 19:00:00 24.9 24 Noroeste 44 Noroeste 0 -- -- 51
2020-08-27 18:00:00 26.4 29 Noroeste 46 Noroeste 0 -- -- 47
2020-08-27 17:00:00 27 25 Noroeste 48 Noroeste 0 -- -- 47
2020-08-27 16:00:00 27.3 22 Noroeste 46 Oeste 0 -- -- 48
2020-08-27 15:00:00 26.3 24 Oeste 44 Oeste 0 -- -- 46
2020-08-27 14:00:00 25.4 18 Oeste 36 Noroeste 0 -- -- 53
2020-08-27 13:00:00 23.5 17 Oeste 31 Oeste 0 -- -- 64
2020-08-27 12:00:00 21.3 15 Oeste 23 Oeste 0 -- -- 70
2020-08-27 11:00:00 19.5 15 Oeste 27 Oeste 0 -- -- 80
2020-08-27 10:00:00 18.7 16 Norte 24 Noroeste 0 -- -- 84
2020-08-27 09:00:00 17.8 11 Norte 18 Norte 0 -- -- 88
2020-08-27 08:00:00 17 6 Nordeste 17 Nordeste 0 -- -- 94
2020-08-27 07:00:00 17.2 9 Nordeste 16 Nordeste 0 -- -- 93
2020-08-27 06:00:00 16.7 8 Nordeste 14 Nordeste 0 -- -- 93
2020-08-27 05:00:00 16.4 3 Nordeste 15 Nordeste 0 -- -- 89
2020-08-27 04:00:00 16.2 9 Nordeste 13 Nordeste 0 -- -- 91
2020-08-27 03:00:00 16.8 8 Norte 15 Nordeste 0 -- -- 85
2020-08-27 02:00:00 17.4 8 Norte 13 Nordeste 0 -- -- 81
2020-08-27 01:00:00 18.2 7 Nordeste 13 Nordeste 0 -- -- 80
2020-08-27 00:00:00 19.6 9 Nordeste 25 Oeste 0 -- -- 72
2020-08-26 23:00:00 22.6 17 Noroeste 29 Oeste 0 -- -- 60
2020-08-26 22:00:00 23.3 10 Noroeste 23 Noroeste 0 -- -- 56
2020-08-26 21:00:00 24.9 15 Noroeste 27 Norte 0 -- -- 53
2020-08-26 20:00:00 27.2 11 Noroeste 27 Oeste 0 -- -- 47
2020-08-26 19:00:00 28.2 19 Noroeste 35 Noroeste 0 -- -- 36
2020-08-26 18:00:00 29 19 Noroeste 36 Oeste 0 -- -- 27
2020-08-26 17:00:00 28.8 18 Oeste 37 Oeste 0 -- -- 29
2020-08-26 16:00:00 27.8 21 Oeste 36 Noroeste 0 -- -- 39
2020-08-26 15:00:00 26.6 22 Oeste 35 Oeste 0 -- -- 46
2020-08-26 14:00:00 25.8 20 Noroeste 33 Noroeste 0 -- -- 50
2020-08-26 13:00:00 24.5 17 Oeste 26 Oeste 0 -- -- 48
2020-08-26 12:00:00 23 14 Oeste 23 Oeste 0 -- -- 54
2020-08-26 11:00:00 21.2 2 Este 4 Este 0 -- -- 65
2020-08-26 10:00:00 18.2 0 Calma 7 Norte 0 -- -- 74
2020-08-26 09:00:00 14.2 3 Norte 14 Norte 0 -- -- 83
2020-08-26 08:00:00 12.9 8 Norte 14 Norte 0 -- -- 88
2020-08-26 07:00:00 12.7 12 Norte 15 Norte 0 -- -- 86
2020-08-26 06:00:00 13.4 10 Norte 20 Norte 0 -- -- 87
2020-08-26 05:00:00 13.8 13 Norte 16 Norte 0 -- -- 86
2020-08-26 04:00:00 15.6 7 Norte 19 Noroeste 0 -- -- 79
2020-08-26 03:00:00 17.5 15 Norte 23 Norte 0 -- -- 71
2020-08-26 02:00:00 17.3 11 Nordeste 18 Nordeste 0 -- -- 72
2020-08-26 01:00:00 17.6 10 Nordeste 18 Norte 0 -- -- 71
2020-08-26 00:00:00 18.2 9 Nordeste 15 Nordeste 0 -- -- 67
2020-08-25 23:00:00 18.8 7 Norte 18 Norte 0 -- -- 62
2020-08-25 22:00:00 21.1 13 Nordeste 24 Nordeste 0 -- -- 58
2020-08-25 21:00:00 24.1 12 Noroeste 32 Noroeste 0 -- -- 44
2020-08-25 20:00:00 26.4 19 Noroeste 35 Noroeste 0 -- -- 35
2020-08-25 19:00:00 27.5 22 Noroeste 38 Oeste 0 -- -- 34
2020-08-25 18:00:00 27.9 19 Noroeste 37 Noroeste 0 -- -- 37
2020-08-25 17:00:00 27.7 17 Noroeste 39 Oeste 0 -- -- 37
2020-08-25 16:00:00 27.6 20 Oeste 40 Noroeste 0 -- -- 33
2020-08-25 15:00:00 26.4 24 Noroeste 38 Noroeste 0 -- -- 39
2020-08-25 14:00:00 25.3 23 Noroeste 36 Oeste 0 -- -- 40
2020-08-25 13:00:00 24.1 17 Oeste 33 Oeste 0 -- -- 34
2020-08-25 12:00:00 22.5 17 Oeste 29 Noroeste 0 -- -- 41
2020-08-25 11:00:00 20.5 12 Oeste 22 Oeste 0 -- -- 58
2020-08-25 10:00:00 17.8 4 Sudoeste 8 Oeste 0 -- -- 74
2020-08-25 09:00:00 14.5 5 Sudoeste 10 Nordeste 0 -- -- 81
2020-08-25 08:00:00 14.2 6 Nordeste 11 Nordeste 0 -- -- 85
2020-08-25 07:00:00 14.4 8 Norte 14 Norte 0 -- -- 85
2020-08-25 06:00:00 15.1 4 Norte 17 Norte 0 -- -- 82
2020-08-25 05:00:00 16 10 Nordeste 15 Nordeste 0 -- -- 77
2020-08-25 04:00:00 15.4 6 Norte 13 Norte 0 -- -- 77
2020-08-25 03:00:00 15.6 10 Norte 15 Norte 0 -- -- 77
2020-08-25 02:00:00 14.9 9 Norte 20 Norte 0 -- -- 82
2020-08-25 01:00:00 15.4 15 Norte 19 Norte 0 -- -- 81
2020-08-25 00:00:00 16.1 11 Norte 18 Norte 0 -- -- 79
2020-08-24 23:00:00 17.3 11 Norte 16 Norte 0 -- -- 77
2020-08-24 22:00:00 19.5 6 Nordeste 8 Nordeste 0 -- -- 70
2020-08-24 21:00:00 23.9 3 Sudeste 12 Sudoeste 0 -- -- 51
2020-08-24 20:00:00 25.8 6 Oeste 17 Oeste 0 -- -- 46
2020-08-24 19:00:00 26.3 9 Sudoeste 20 Sudoeste 0 -- -- 48
2020-08-24 18:00:00 26.5 9 Sudoeste 17 Sudoeste 0 -- -- 50
2020-08-24 17:00:00 25.4 8 Sur 16 Este 0 -- -- 48
2020-08-24 16:00:00 23.9 8 Oeste 16 Sur 0 -- -- 48
2020-08-24 15:00:00 21.8 4 Sur 14 Sur 0 -- -- 57
2020-08-24 14:00:00 19.4 6 Sudeste 14 Sur 0 -- -- 71
2020-08-24 13:00:00 17.2 3 Este 11 Sur 0 -- -- 80
2020-08-24 12:00:00 15.1 3 Oeste 9 Sudeste 0 -- -- 89
2020-08-24 11:00:00 14.3 4 Sudeste 10 Sudoeste 0 -- -- 92
2020-08-24 10:00:00 13.8 3 Oeste 5 Este 0 -- -- 94
2020-08-24 09:00:00 12.4 3 Nordeste 10 Norte 0 -- -- 97
2020-08-24 08:00:00 11.1 7 Norte 12 Norte 0 -- -- 97
2020-08-24 07:00:00 11 8 Nordeste 12 Nordeste 0 -- -- 96
2020-08-24 06:00:00 11 0 Calma 16 Norte 0 -- -- 94
2020-08-24 05:00:00 12.1 10 Nordeste 14 Nordeste 0 -- -- 94
2020-08-24 04:00:00 12.9 6 Norte 10 Norte 0 -- -- 92
2020-08-24 03:00:00 13.4 4 Noroeste 14 Norte 0 -- -- 91
2020-08-24 02:00:00 14.3 12 Norte 17 Norte 0 -- -- 88
2020-08-24 01:00:00 14.9 11 Norte 13 Norte 0 -- -- 85
2020-08-24 00:00:00 16.1 11 Norte 17 Norte 0 -- -- 79
2020-08-23 23:00:00 18.4 14 Norte 22 Norte 0 -- -- 70
2020-08-23 22:00:00 19.7 5 Norte 18 Noroeste 0 -- -- 66
2020-08-23 21:00:00 22.2 13 Noroeste 24 Noroeste 0 -- -- 50
2020-08-23 20:00:00 24.7 12 Oeste 26 Noroeste 0 -- -- 40
2020-08-23 19:00:00 25.4 16 Oeste 26 Noroeste 0 -- -- 38
2020-08-23 18:00:00 25.1 16 Oeste 27 Oeste 0 -- -- 37
2020-08-23 17:00:00 26 12 Oeste 27 Oeste 0 -- -- 39
2020-08-23 16:00:00 24.8 5 Oeste 16 Este 0 -- -- 39
2020-08-23 15:00:00 23.6 7 Sur 15 Sudoeste 0 -- -- 41
2020-08-23 14:00:00 22 5 Este 12 Sur 0 -- -- 48
2020-08-23 13:00:00 20.4 6 Sur 13 Sudoeste 0 -- -- 52
2020-08-23 12:00:00 18.8 6 Sur 12 Sur 0 -- -- 64
2020-08-23 11:00:00 17 4 Sur 13 Sudeste 0 -- -- 74
2020-08-23 10:00:00 15.2 3 Sudoeste 11 Norte 0 -- -- 79
2020-08-23 09:00:00 11.9 8 Norte 14 Norte 0 -- -- 87
2020-08-23 08:00:00 9.8 12 Norte 15 Norte 0 -- -- 91
2020-08-23 07:00:00 9.8 8 Norte 15 Norte 0 -- -- 90
2020-08-23 06:00:00 10.8 10 Norte 14 Norte 0 -- -- 87
2020-08-23 05:00:00 12.3 5 Oeste 13 Nordeste 0 -- -- 78
2020-08-23 04:00:00 13.1 8 Norte 22 Noroeste 0 -- -- 77
2020-08-23 03:00:00 13.6 13 Norte 18 Noroeste 0 -- -- 76
2020-08-23 02:00:00 14.1 9 Norte 23 Norte 0 -- -- 74
2020-08-23 01:00:00 14.6 10 Norte 19 Norte 0 -- -- 70
2020-08-23 00:00:00 15.5 10 Nordeste 32 Noroeste 0 -- -- 67
2020-08-22 23:00:00 17.5 19 Noroeste 32 Noroeste 0 -- -- 57
2020-08-22 22:00:00 18.3 7 Norte 23 Noroeste 0 -- -- 59
2020-08-22 21:00:00 20.2 13 Oeste 24 Oeste 0 -- -- 51
2020-08-22 20:00:00 23 16 Noroeste 27 Noroeste 0 -- -- 38
2020-08-22 19:00:00 24.1 15 Noroeste 32 Oeste 0 -- -- 29
2020-08-22 18:00:00 24 17 Oeste 32 Oeste 0 -- -- 31
2020-08-22 17:00:00 23.6 18 Oeste 31 Oeste 0 -- -- 25
2020-08-22 16:00:00 22.9 17 Oeste 32 Oeste 0 -- -- 33
2020-08-22 15:00:00 22.3 14 Oeste 27 Oeste 0 -- -- 37
2020-08-22 14:00:00 20.4 6 Nordeste 12 Nordeste 0 -- -- 39
2020-08-22 13:00:00 18.3 4 Este 12 Nordeste 0 -- -- 53
2020-08-22 12:00:00 16.5 5 Sudeste 13 Sudeste 0 -- -- 70
2020-08-22 11:00:00 14.6 3 Sudeste 9 Sudeste 0 -- -- 79
2020-08-22 10:00:00 13.5 3 Sudeste 21 Norte 0 -- -- 80
2020-08-22 09:00:00 11.8 15 Norte 22 Norte 0 -- -- 89
2020-08-22 08:00:00 11.1 12 Nordeste 21 Noroeste 0 -- -- 89
2020-08-22 07:00:00 11.3 13 Norte 21 Norte 0 -- -- 88
2020-08-22 06:00:00 11 12 Norte 26 Norte 0 -- -- 87
2020-08-22 05:00:00 12.5 14 Norte 30 Noroeste 0 -- -- 85
2020-08-22 04:00:00 12.3 14 Norte 23 Norte 0 -- -- 88
2020-08-22 03:00:00 12.5 5 Nordeste 28 Norte 0 -- -- 85
2020-08-22 02:00:00 12.8 16 Norte 25 Noroeste 0 -- -- 83
2020-08-22 01:00:00 13.8 17 Nordeste 26 Oeste 0 -- -- 83
2020-08-22 00:00:00 14.9 4 Nordeste 31 Norte 0 -- -- 76
2020-08-21 23:00:00 15.3 12 Noroeste 31 Noroeste 0 -- -- 75
2020-08-21 22:00:00 15.9 16 Noroeste 38 Noroeste 0 -- -- 73
2020-08-21 21:00:00 17.8 15 Noroeste 33 Noroeste 0 -- -- 67
2020-08-21 20:00:00 20.6 13 Noroeste 32 Noroeste 0 -- -- 56
2020-08-21 19:00:00 21.7 18 Noroeste 35 Noroeste 0 -- -- 50
2020-08-21 18:00:00 22.5 18 Oeste 41 Oeste 0 -- -- 46
2020-08-21 17:00:00 21.2 15 Noroeste 35 Noroeste 0 -- -- 50
2020-08-21 16:00:00 21.4 17 Oeste 31 Noroeste 0 -- -- 49
2020-08-21 15:00:00 20.7 18 Noroeste 35 Noroeste 0 -- -- 50
2020-08-21 14:00:00 19.6 22 Oeste 38 Oeste 0 -- -- 45
2020-08-21 13:00:00 18.1 23 Noroeste 37 Oeste 0 -- -- 55
2020-08-21 12:00:00 17.4 17 Noroeste 30 Oeste 0 -- -- 54
2020-08-21 11:00:00 15.8 12 Noroeste 21 Noroeste 0 -- -- 54
2020-08-21 10:00:00 13.1 14 Norte 20 Norte 0 -- -- 79
2020-08-21 09:00:00 11.5 0 Calma 11 Norte 0 -- -- 88
2020-08-21 08:00:00 10.7 4 Norte 10 Norte 0 -- -- 88
2020-08-21 07:00:00 11.2 4 Norte 15 Norte 0 -- -- 88
2020-08-21 06:00:00 12.2 2 Norte 16 Norte 0 -- -- 81
2020-08-21 05:00:00 12.8 8 Norte 16 Noroeste 0 -- -- 82
2020-08-21 04:00:00 13.7 6 Nordeste 18 Noroeste 0 -- -- 85
2020-08-21 03:00:00 15.2 9 Oeste 22 Noroeste 0 -- -- 73
2020-08-21 02:00:00 15.3 6 Nordeste 15 Nordeste 0 -- -- 78
2020-08-21 01:00:00 15.9 8 Noroeste 26 Noroeste 0 -- -- 77
2020-08-21 00:00:00 16.6 10 Noroeste 17 Noroeste 0 -- -- 78
2020-08-20 23:00:00 17.7 14 Noroeste 22 Noroeste 0 -- -- 70
2020-08-20 22:00:00 18.4 10 Noroeste 24 Noroeste 0 -- -- 67
2020-08-20 21:00:00 18.8 10 Noroeste 28 Noroeste 0 -- -- 67
2020-08-20 20:00:00 20 9 Oeste 20 Oeste 0 -- -- 73
2020-08-20 19:00:00 20.5 5 Sudoeste 15 Sudoeste 0 -- -- 88
2020-08-20 18:00:00 20 4 Sudoeste 20 Sudoeste 0 -- -- 89
2020-08-20 17:00:00 20.1 12 Sudoeste 27 Sudoeste 0.6 -- -- 87
2020-08-20 16:00:00 18.8 15 Sudoeste 40 Sudoeste 0.8 -- -- 90
2020-08-20 15:00:00 20.5 11 Sudeste 26 Sur 0 -- -- 82
2020-08-20 14:00:00 18.8 8 Sur 26 Sudoeste 0 -- -- 93
2020-08-20 13:00:00 17.7 3 Sur 9 Sur 0 -- -- 94
2020-08-20 12:00:00 16.5 4 Sur 13 Sur 0 -- -- 96
2020-08-20 11:00:00 15.8 4 Sur 11 Sur 0 -- -- 98
2020-08-20 10:00:00 15.5 4 Sur 11 Sudeste 0 -- -- 97
2020-08-20 09:00:00 15.2 4 Sudeste 12 Sudeste 0.2 -- -- 97
2020-08-20 08:00:00 14.9 6 Este 12 Este 1.6 -- -- 97
2020-08-20 07:00:00 15.1 7 Este 10 Este 2 -- -- 95
2020-08-20 06:00:00 15.6 6 Este 12 Nordeste 0.4 -- -- 92
2020-08-20 05:00:00 16.4 4 Nordeste 13 Norte 0 -- -- 89
2020-08-20 04:00:00 16.8 4 Norte 17 Norte 0.2 -- -- 89
2020-08-20 03:00:00 17 16 Norte 22 Norte 0 -- -- 88
2020-08-20 02:00:00 17.6 6 Norte 13 Norte 0 -- -- 82
2020-08-20 01:00:00 17.2 9 Norte 16 Norte 0 -- -- 82
2020-08-20 00:00:00 17.7 2 Nordeste 18 Noroeste 0 -- -- 78